Spokane, Louisiana
Current Conditions -  °F | °C
As of 8:35 AM on Friday 24 Oct 2014 (Local Time) from KHEZ Reporting Station
Overcast Overcast  
Wind Chill: 48°   Ceiling: 100
Heat Index: 48°   Visibility: 0.5mi
Dew Point: 46°   Wind: 0mph
Humidity: 93%   Direction: NA
Pressure: 30.16"   Gusts: NA
Location:  31.6488°N, 91.6098°W
Report Text: KHEZ 241335Z AUTO 00000KT 1/2SM OVC001 09/08 A3016 RMK AO1
Loading
Personal Weather Stations






























Interactive Weather Map
Tropical Storm Tracking
New forecast layout! Learn more

10-Day Weather Forecast

Advertisements
Track Severe Weather on mobile